^^
Grace C. Lehan Memorial Weather Station Historical Data
Daily Summary for May 20, 2021 Units:  English    Metric   Both
Daily Weekly Monthly Yearly
  High: Low: Average:
Temperature: 76.1 °F 50.4 °F 63.3 °F
Dew Point: 56.8 °F 43.6 °F 51.1 °F
Humidity: 79.4% 47.3% 65%
Wind Speed: 5.6mph 0mph 1.6mph
Wind Gust: 16mph - -
Wind- - West
Pressure: 29.96 in 29.84 in -
Precipitation: 0.00 in    
 
 
Tabular Data for May 20, 2021
Time Temperature Dew Point Pressure Wind Wind Speed Wind Gust Humidity Rainfall Rate (Hourly) solar
00:00 50.7 °F 44.4 °F 29.85 in Calm     79% 0.00 in 0 W/m2
00:09 50.5 °F 44.4 °F 29.84 in Calm   1 mph 79.4% 0.00 in 0 W/m2
00:14 50.4 °F 44.1 °F 29.84 in Calm   1 mph 78.7% 0.00 in 0 W/m2
00:19 50.5 °F 43.8 °F 29.84 in Calm   1 mph 77.7% 0.00 in 0 W/m2
00:24 50.6 °F 43.6 °F 29.84 in Calm   1 mph 77% 0.00 in 0 W/m2
00:29 50.8 °F 43.7 °F 29.84 in WSW 0.2 mph 2 mph 76.4% 0.00 in 0 W/m2
00:34 51.1 °F 43.7 °F 29.84 in WSW 0.3 mph 3 mph 75.8% 0.00 in 0 W/m2
00:39 51.5 °F 43.7 °F 29.84 in SW 0.8 mph 4 mph 74.6% 0.00 in 0 W/m2
00:44 51.9 °F 43.8 °F 29.84 in WSW 0.2 mph 4 mph 73.7% 0.00 in 0 W/m2
00:49 52.4 °F 43.9 °F 29.84 in West 0.7 mph 6 mph 72.7% 0.00 in 0 W/m2
00:54 52.8 °F 43.9 °F 29.85 in West 0.6 mph 7 mph 71.6% 0.00 in 0 W/m2
00:59 53.2 °F 44.1 °F 29.84 in West 0.2 mph 7 mph 71% 0.00 in 0 W/m2
01:04 53.6 °F 44.1 °F 29.84 in West 1 mph 7 mph 70.1% 0.00 in 0 W/m2
01:09 54 °F 44.2 °F 29.84 in WSW 0.3 mph 7 mph 69.5% 0.00 in 0 W/m2
01:14 54.2 °F 44.3 °F 29.84 in WSW 0.5 mph 7 mph 69% 0.00 in 0 W/m2
01:19 54.5 °F 44.3 °F 29.84 in WSW 0.6 mph 7 mph 68.3% 0.00 in 0 W/m2
01:24 54.7 °F 44.4 °F 29.84 in WSW 0.4 mph 7 mph 68% 0.00 in 0 W/m2
01:29 54.9 °F 44.4 °F 29.84 in WSW 0.6 mph 7 mph 67.4% 0.00 in 0 W/m2
01:34 55.1 °F 44.4 °F 29.84 in WSW 0.3 mph 7 mph 67.3% 0.00 in 0 W/m2
01:39 55.1 °F 44.4 °F 29.84 in WSW 0.7 mph 6 mph 67% 0.00 in 0 W/m2
01:44 55.3 °F 44.5 °F 29.85 in WSW 0.3 mph 6 mph 67% 0.00 in 0 W/m2
01:49 55.3 °F 44.5 °F 29.85 in Calm   6 mph 67% 0.00 in 0 W/m2
01:54 55.3 °F 44.5 °F 29.85 in Calm   6 mph 67% 0.00 in 0 W/m2
01:59 55.2 °F 44.4 °F 29.85 in Calm   6 mph 67% 0.00 in 0 W/m2
02:04 55.1 °F 44.4 °F 29.85 in WSW 0.1 mph 6 mph 67.1% 0.00 in 0 W/m2
02:09 55 °F 44.6 °F 29.85 in WSW 0.2 mph 2 mph 68% 0.00 in 0 W/m2
02:14 54.8 °F 44.5 °F 29.85 in WSW 0.3 mph 3 mph 68.1% 0.00 in 0 W/m2
02:19 54.6 °F 44.7 °F 29.85 in WSW 0.8 mph 6 mph 69% 0.00 in 0 W/m2
02:24 54.5 °F 44.5 °F 29.85 in WSW 1.2 mph 6 mph 69% 0.00 in 0 W/m2
02:29 54.4 °F 44.6 °F 29.85 in WSW 1.6 mph 6 mph 69.3% 0.00 in 0 W/m2
02:34 54.3 °F 44.8 °F 29.85 in WSW 0.9 mph 6 mph 70% 0.00 in 0 W/m2
02:39 54.3 °F 44.7 °F 29.85 in WSW 1.2 mph 5 mph 70% 0.00 in 0 W/m2
02:44 54.3 °F 44.7 °F 29.85 in SW 1.9 mph 6 mph 70% 0.00 in 0 W/m2
02:49 54.2 °F 44.6 °F 29.85 in WSW 1.7 mph 6 mph 70% 0.00 in 0 W/m2
02:54 54.2 °F 44.8 °F 29.85 in WSW 2.6 mph 7 mph 70.5% 0.00 in 0 W/m2
02:59 54.2 °F 45 °F 29.84 in WSW 2.4 mph 7 mph 71% 0.00 in 0 W/m2
03:04 54.2 °F 45 °F 29.84 in WSW 2.7 mph 7 mph 71% 0.00 in 0 W/m2
03:09 54.2 °F 45 °F 29.84 in WSW 2.6 mph 9 mph 71% 0.00 in 0 W/m2
03:14 54.3 °F 45.1 °F 29.84 in WSW 3.1 mph 11 mph 71% 0.00 in 0 W/m2
03:19 54.4 °F 45.2 °F 29.84 in WSW 3.3 mph 11 mph 71% 0.00 in 0 W/m2
03:24 54.3 °F 45.2 °F 29.84 in WSW 2.3 mph 11 mph 71% 0.00 in 0 W/m2
03:29 54.3 °F 45.1 °F 29.84 in WSW 3.9 mph 11 mph 71% 0.00 in 0 W/m2
03:34 54.3 °F 45.1 °F 29.84 in WSW 3.3 mph 12 mph 71% 0.00 in 0 W/m2
03:39 54.2 °F 45 °F 29.85 in West 3.1 mph 12 mph 71% 0.00 in 0 W/m2
03:44 54.2 °F 45.4 °F 29.85 in WSW 2.1 mph 12 mph 72% 0.00 in 0 W/m2
03:49 54.2 °F 45.4 °F 29.85 in WSW 3.1 mph 12 mph 72% 0.00 in 0 W/m2
03:54 54.1 °F 45.4 °F 29.85 in WSW 3.4 mph 12 mph 72.3% 0.00 in 0 W/m2
03:59 54.1 °F 45.5 °F 29.85 in WSW 3.7 mph 12 mph 72.5% 0.00 in 0 W/m2
04:00 54.1 °F 45.7 °F 29.85 in Calm   12 mph 73% 0.00 in 0 W/m2
04:09 54 °F 45.5 °F 29.85 in WSW 1.8 mph 5 mph 73% 0.00 in 0 W/m2
04:14 53.9 °F 45.5 °F 29.85 in WSW 1.9 mph 6 mph 73.1% 0.00 in 0 W/m2
04:19 53.8 °F 45.8 °F 29.85 in WSW 2.5 mph 7 mph 74% 0.00 in 0 W/m2
04:24 53.8 °F 45.7 °F 29.85 in WSW 3.4 mph 9 mph 74% 0.00 in 0 W/m2
04:29 53.9 °F 45.8 °F 29.86 in WSW 2.4 mph 9 mph 74% 0.00 in 0 W/m2
04:34 53.9 °F 45.9 °F 29.86 in WSW 3 mph 11 mph 74% 0.00 in 0 W/m2
04:39 54 °F 45.9 °F 29.86 in WSW 3.4 mph 11 mph 74% 0.00 in 0 W/m2
04:44 54.1 °F 46 °F 29.86 in SW 2.1 mph 11 mph 74% 0.00 in 0 W/m2
04:49 54.2 °F 46.1 °F 29.86 in WSW 2.7 mph 11 mph 74% 0.00 in 0 W/m2
04:54 54.2 °F 46.1 °F 29.86 in WSW 3.7 mph 11 mph 74% 0.00 in 0 W/m2
04:59 54.2 °F 46.1 °F 29.86 in WSW 3.9 mph 13 mph 74% 0.00 in 0 W/m2
05:04 54.3 °F 46.2 °F 29.86 in WSW 4.3 mph 13 mph 74% 0.00 in 0 W/m2
05:09 54.4 °F 46.3 °F 29.86 in WSW 4 mph 14 mph 74% 0.00 in 0 W/m2
05:14 54.5 °F 46.7 °F 29.87 in WSW 3.7 mph 14 mph 75% 0.00 in 0 W/m2
05:19 54.5 °F 46.9 °F 29.87 in West 3.9 mph 16 mph 75.5% 0.00 in 0 W/m2
05:24 54.5 °F 46.5 °F 29.87 in WSW 3.1 mph 16 mph 74.4% 0.00 in 0 W/m2
05:29 54.5 °F 46.4 °F 29.87 in WSW 3.9 mph 16 mph 74% 0.00 in 0 W/m2
05:34 54.5 °F 46.4 °F 29.86 in WSW 3.3 mph 16 mph 74% 0.00 in 0 W/m2
05:39 54.4 °F 46.5 °F 29.86 in WSW 4.6 mph 16 mph 74.5% 0.00 in 0 W/m2
05:44 54.5 °F 46.7 °F 29.87 in WSW 4.7 mph 16 mph 75% 0.00 in 0 W/m2
05:49 54.5 °F 46.8 °F 29.87 in WSW 4.3 mph 16 mph 75% 0.00 in 0 W/m2
05:54 54.6 °F 46.7 °F 29.87 in WSW 4 mph 16 mph 74.5% 0.00 in 0 W/m2
05:59 54.6 °F 46.8 °F 29.87 in WSW 3 mph 16 mph 75% 0.00 in 0 W/m2
06:04 54.6 °F 46.8 °F 29.87 in WSW 4.5 mph 16 mph 75% 0.00 in 0 W/m2
06:09 54.5 °F 46.8 °F 29.87 in WSW 4.3 mph 13 mph 75% 0.00 in 0 W/m2
06:14 54.5 °F 46.8 °F 29.88 in WSW 4 mph 13 mph 75.2% 0.00 in 0 W/m2
06:19 54.5 °F 47.1 °F 29.88 in WSW 4.4 mph 13 mph 76% 0.00 in 0 W/m2
06:24 54.5 °F 47.1 °F 29.87 in WSW 3.1 mph 13 mph 76% 0.00 in 0 W/m2
06:29 54.4 °F 47 °F 29.87 in WSW 4.7 mph 13 mph 76% 0.00 in 0 W/m2
06:34 54.5 °F 47.1 °F 29.87 in WSW 5.6 mph 14 mph 76% 0.00 in 0 W/m2
06:39 54.5 °F 47.1 °F 29.87 in WSW 5.2 mph 14 mph 76% 0.00 in 0 W/m2
06:44 54.6 °F 47.2 °F 29.88 in WSW 4.7 mph 14 mph 76% 0.00 in 0 W/m2
06:49 54.6 °F 47.2 °F 29.88 in WSW 4.6 mph 14 mph 76% 0.00 in 0 W/m2
06:54 54.6 °F 47.2 °F 29.88 in WSW 4.3 mph 14 mph 76% 0.00 in 0 W/m2
06:59 54.6 °F 47.2 °F 29.88 in WSW 4.2 mph 14 mph 76% 0.00 in 0 W/m2
07:04 54.6 °F 47.2 °F 29.88 in WSW 4.5 mph 14 mph 76% 0.00 in 0 W/m2
07:09 54.6 °F 47.2 °F 29.88 in WSW 3.9 mph 10 mph 76% 0.00 in 0 W/m2
07:14 54.5 °F 47.3 °F 29.88 in WSW 4.3 mph 15 mph 76.6% 0.00 in 5 W/m2
07:19 54.5 °F 47.4 °F 29.88 in WSW 2.9 mph 15 mph 76.8% 0.00 in 9 W/m2
07:24 54.6 °F 47.4 °F 29.88 in WSW 4.3 mph 15 mph 76.7% 0.00 in 16 W/m2
07:29 54.6 °F 47.6 °F 29.88 in WSW 3.3 mph 15 mph 77% 0.00 in 19 W/m2
07:34 54.7 °F 47.7 °F 29.88 in WSW 3.2 mph 15 mph 77% 0.00 in 26 W/m2
07:39 54.8 °F 47.8 °F 29.88 in WSW 4.1 mph 14 mph 77% 0.00 in 33 W/m2
07:44 55 °F 47.9 °F 29.89 in WSW 3.9 mph 14 mph 76.7% 0.00 in 39 W/m2
07:49 55.3 °F 47.8 °F 29.89 in West 2.2 mph 14 mph 76% 0.00 in 39 W/m2
07:54 55.5 °F 48.1 °F 29.89 in WSW 2.2 mph 14 mph 76% 0.00 in 47 W/m2
07:59 55.8 °F 48.4 °F 29.89 in West 2.4 mph 16 mph 76% 0.00 in 58 W/m2
08:09 56.5 °F 48.7 °F 29.89 in WSW 3.9 mph 15 mph 75% 0.00 in 60 W/m2
08:12 56.8 °F 49 °F 29.89 in West 1.6 mph 15 mph 75% 0.00 in 69 W/m2
08:30 57.9 °F 49.7 °F 29.90 in West 3 mph 15 mph 74% 0.00 in 75 W/m2
09:00 60 °F 50.6 °F 29.91 in Calm   4 mph 71% 0.00 in 137 W/m2
09:30 61.1 °F 51.6 °F 29.92 in Calm     71% 0.00 in 159 W/m2
10:00 64.6 °F 53.4 °F 29.92 in Calm   1 mph 67% 0.00 in 330 W/m2
10:30 66.7 °F 53.3 °F 29.92 in Calm   5 mph 62% 0.00 in 309 W/m2
11:00 69.4 °F 54 °F 29.93 in Calm   3 mph 58% 0.00 in 506 W/m2
11:30 71.4 °F 55.4 °F 29.92 in Calm   4 mph 57% 0.00 in 335 W/m2
12:04 73.4 °F 56.4 °F 29.92 in WSW 0.5 mph 1 mph 55.3% 0.00 in 577 W/m2
12:09 73.5 °F 56.7 °F 29.92 in WNW 1.7 mph 7 mph 55.7% 0.00 in 577 W/m2
12:14 73.5 °F 56.2 °F 29.92 in WNW 3.1 mph 10 mph 54.7% 0.00 in 334 W/m2
12:19 73.4 °F 56.1 °F 29.92 in WNW 2.7 mph 10 mph 54.7% 0.00 in 171 W/m2
12:24 73.2 °F 56 °F 29.92 in WNW 1.1 mph 10 mph 54.8% 0.00 in 197 W/m2
12:29 73.1 °F 56.1 °F 29.91 in WNW 0.6 mph 10 mph 55.2% 0.00 in 244 W/m2
12:34 73.1 °F 56.2 °F 29.91 in WNW 0.3 mph 10 mph 55.3% 0.00 in 244 W/m2
12:39 73.2 °F 56.6 °F 29.91 in West 1.7 mph 8 mph 56% 0.00 in 591 W/m2
12:44 73.3 °F 56.5 °F 29.91 in West 2.2 mph 10 mph 55.7% 0.00 in 455 W/m2
12:49 73.3 °F 55.9 °F 29.91 in WSW 1.6 mph 10 mph 54.5% 0.00 in 267 W/m2
12:54 73.4 °F 56.8 °F 29.91 in WSW 0.8 mph 10 mph 56.1% 0.00 in 348 W/m2
12:59 73.5 °F 56.3 °F 29.91 in WNW 2.8 mph 10 mph 54.8% 0.00 in 113 W/m2
13:04 73.5 °F 56.2 °F 29.90 in WNW 2 mph 10 mph 54.7% 0.00 in 311 W/m2
13:09 73.6 °F 56.4 °F 29.90 in WNW 2.2 mph 8 mph 55% 0.00 in 199 W/m2
13:14 73.8 °F 56.4 °F 29.90 in WSW 2.9 mph 8 mph 54.5% 0.00 in 279 W/m2
13:19 74 °F 55.5 °F 29.90 in West 3.6 mph 11 mph 52.5% 0.00 in 279 W/m2
13:24 74.1 °F 55.7 °F 29.90 in West 1.6 mph 11 mph 52.7% 0.00 in 246 W/m2
13:29 74.2 °F 55.6 °F 29.90 in West 3.7 mph 11 mph 52.3% 0.00 in 142 W/m2
13:34 74.3 °F 55.4 °F 29.90 in WNW 3.9 mph 11 mph 51.7% 0.00 in 165 W/m2
13:39 74.3 °F 55.9 °F 29.90 in WSW 2.8 mph 11 mph 52.5% 0.00 in 425 W/m2
13:44 74.6 °F 55.7 °F 29.90 in West 3.8 mph 12 mph 51.8% 0.00 in 425 W/m2
13:49 74.7 °F 56.1 °F 29.90 in WNW 3.4 mph 13 mph 52.4% 0.00 in 229 W/m2
13:54 74.8 °F 55.6 °F 29.90 in West 2.5 mph 13 mph 51.3% 0.00 in 216 W/m2
13:59 74.9 °F 55.2 °F 29.90 in West 5.3 mph 13 mph 50.3% 0.00 in 211 W/m2
14:04 74.9 °F 55.6 °F 29.90 in West 3.2 mph 15 mph 51.1% 0.00 in 199 W/m2
14:09 75 °F 55.9 °F 29.90 in WNW 5.1 mph 15 mph 51.3% 0.00 in 241 W/m2
14:14 75 °F 55.2 °F 29.90 in WNW 4.8 mph 15 mph 50% 0.00 in 149 W/m2
14:19 75 °F 55.3 °F 29.90 in West 4.8 mph 15 mph 50.3% 0.00 in 197 W/m2
14:24 75.1 °F 55.8 °F 29.90 in West 3.3 mph 15 mph 51.2% 0.00 in 501 W/m2
14:29 75.3 °F 55.7 °F 29.90 in West 2.8 mph 15 mph 50.6% 0.00 in 501 W/m2
14:34 75.5 °F 55.4 °F 29.90 in WNW 3 mph 15 mph 49.8% 0.00 in 250 W/m2
14:39 75.5 °F 55.1 °F 29.90 in WNW 4 mph 10 mph 49.1% 0.00 in 120 W/m2
14:44 75.5 °F 55.3 °F 29.90 in WNW 3.1 mph 10 mph 49.5% 0.00 in 153 W/m2
14:49 75.7 °F 55.5 °F 29.90 in WNW 1.2 mph 10 mph 49.5% 0.00 in 105 W/m2
14:54 75.7 °F 55.7 °F 29.90 in West 0.7 mph 10 mph 49.8% 0.00 in 93 W/m2
14:59 75.8 °F 55.7 °F 29.90 in West 1.8 mph 10 mph 49.6% 0.00 in 91 W/m2
15:04 75.7 °F 55.6 °F 29.90 in WSW 0.7 mph 10 mph 49.7% 0.00 in 113 W/m2
15:09 75.4 °F 55.3 °F 29.90 in West 2.2 mph 6 mph 49.7% 0.00 in 113 W/m2
15:14 75 °F 55.5 °F 29.90 in WNW 0.4 mph 6 mph 50.6% 0.00 in 209 W/m2
15:19 75.1 °F 56.4 °F 29.90 in West 0.6 mph 6 mph 52.3% 0.00 in 244 W/m2
15:24 75.4 °F 55.9 °F 29.90 in WNW 2.2 mph 6 mph 50.8% 0.00 in 462 W/m2
15:29 75.8 °F 55.8 °F 29.90 in WNW 1.5 mph 6 mph 50% 0.00 in 367 W/m2
15:34 76.1 °F 55.6 °F 29.91 in WNW 1.6 mph 6 mph 49% 0.00 in 281 W/m2
15:39 76.1 °F 55.3 °F 29.90 in West 2.2 mph 6 mph 48.5% 0.00 in 109 W/m2
15:44 76 °F 54.9 °F 29.90 in West 3.7 mph 9 mph 48% 0.00 in 98 W/m2
15:49 75.9 °F 54.7 °F 29.90 in WNW 1.6 mph 9 mph 47.8% 0.00 in 86 W/m2
15:54 75.8 °F 55 °F 29.90 in WNW 0.1 mph 9 mph 48.5% 0.00 in 63 W/m2
15:59 75.7 °F 55.6 °F 29.90 in WNW 1.2 mph 9 mph 49.6% 0.00 in 46 W/m2
16:00 75.7 °F 55.2 °F 29.90 in West 5 mph 9 mph 49% 0.00 in 35 W/m2
16:09 75.4 °F 54 °F 29.90 in WNW 4 mph 11 mph 47.3% 0.00 in 32 W/m2
16:14 75.3 °F 53.9 °F 29.90 in WNW 1.4 mph 11 mph 47.3% 0.00 in 30 W/m2
16:19 75.1 °F 54.2 °F 29.90 in WNW 2.3 mph 11 mph 48.2% 0.00 in 30 W/m2
16:24 74.9 °F 54.1 °F 29.90 in WNW 2.9 mph 11 mph 48.4% 0.00 in 28 W/m2
16:29 74.8 °F 54.3 °F 29.90 in West 1.6 mph 11 mph 48.9% 0.00 in 28 W/m2
16:34 74.7 °F 54.1 °F 29.90 in WNW 4 mph 11 mph 48.7% 0.00 in 26 W/m2
16:39 74.6 °F 53.9 °F 29.90 in WNW 2.5 mph 10 mph 48.5% 0.00 in 26 W/m2
16:44 74.5 °F 53.9 °F 29.90 in WNW 3.5 mph 10 mph 48.6% 0.00 in 25 W/m2
16:49 74.3 °F 53.7 °F 29.91 in WNW 3.5 mph 10 mph 48.5% 0.00 in 25 W/m2
16:54 74.2 °F 53.5 °F 29.91 in WNW 2.5 mph 10 mph 48.5% 0.00 in 23 W/m2
16:59 74 °F 53.4 °F 29.91 in WNW 1.6 mph 10 mph 48.5% 0.00 in 23 W/m2
17:04 73.9 °F 54 °F 29.90 in WNW 1.7 mph 10 mph 49.9% 0.00 in 21 W/m2
17:09 73.7 °F 53.7 °F 29.90 in WNW 1.4 mph 6 mph 49.5% 0.00 in 21 W/m2
17:14 73.6 °F 53.9 °F 29.91 in WSW 1.4 mph 8 mph 50.2% 0.00 in 19 W/m2
17:19 73.3 °F 53.9 °F 29.91 in West 1.6 mph 11 mph 50.5% 0.00 in 19 W/m2
17:24 73.1 °F 53.8 °F 29.91 in WNW 0.2 mph 11 mph 50.8% 0.00 in 18 W/m2
17:29 73 °F 53.5 °F 29.91 in WNW 0.6 mph 11 mph 50.4% 0.00 in 16 W/m2
17:34 72.8 °F 53.4 °F 29.91 in WNW 0.1 mph 11 mph 50.5% 0.00 in 16 W/m2
17:39 72.6 °F 53.4 °F 29.91 in WNW 0.2 mph 3 mph 51% 0.00 in 14 W/m2
17:44 72.3 °F 53.2 °F 29.91 in West 0.1 mph 4 mph 51% 0.00 in 11 W/m2
17:49 72 °F 53.2 °F 29.91 in Calm   4 mph 51.6% 0.00 in 9 W/m2
17:54 71.7 °F 53.2 °F 29.91 in Calm   4 mph 52% 0.00 in 5 W/m2
17:59 71.4 °F 53.3 °F 29.91 in Calm   4 mph 52.8% 0.00 in 5 W/m2
18:04 71.1 °F 53.4 °F 29.91 in Calm   4 mph 53.5% 0.00 in 0 W/m2
18:09 70.7 °F 53.3 °F 29.91 in Calm     54% 0.00 in 0 W/m2
18:14 70.3 °F 52.9 °F 29.92 in Calm     54% 0.00 in 0 W/m2
18:19 70 °F 52.8 °F 29.92 in Calm     54.5% 0.00 in 0 W/m2
18:24 69.6 °F 53.1 °F 29.92 in Calm     55.7% 0.00 in 0 W/m2
18:29 69.2 °F 53.3 °F 29.92 in Calm     56.9% 0.00 in 0 W/m2
18:34 68.8 °F 53.5 °F 29.92 in Calm     58.2% 0.00 in 0 W/m2
18:39 68.4 °F 53.1 °F 29.92 in Calm     58.3% 0.00 in 0 W/m2
18:44 67.9 °F 53.3 °F 29.92 in Calm     59.4% 0.00 in 0 W/m2
18:49 67.5 °F 53.3 °F 29.92 in Calm     60.3% 0.00 in 0 W/m2
18:54 67.1 °F 53.5 °F 29.92 in Calm     61.7% 0.00 in 0 W/m2
18:59 66.7 °F 53.3 °F 29.92 in Calm     62% 0.00 in 0 W/m2
19:04 66.5 °F 53.2 °F 29.93 in Calm     62.3% 0.00 in 0 W/m2
19:09 66.2 °F 53.2 °F 29.93 in Calm     63% 0.00 in 0 W/m2
19:14 66 °F 53.5 °F 29.93 in Calm     64% 0.00 in 0 W/m2
19:19 65.8 °F 53.5 °F 29.93 in Calm     64.4% 0.00 in 0 W/m2
19:24 65.7 °F 53.4 °F 29.93 in Calm     64.6% 0.00 in 0 W/m2
19:29 65.6 °F 53.5 °F 29.94 in Calm     65% 0.00 in 0 W/m2
19:34 65.4 °F 53.6 °F 29.93 in Calm     65.4% 0.00 in 0 W/m2
19:39 65.3 °F 53.8 °F 29.94 in Calm     66.3% 0.00 in 0 W/m2
19:44 65 °F 53.8 °F 29.94 in Calm   1 mph 67% 0.00 in 0 W/m2
19:49 64.8 °F 53.6 °F 29.94 in Calm   1 mph 67% 0.00 in 0 W/m2
19:54 64.6 °F 53.4 °F 29.93 in Calm   1 mph 67% 0.00 in 0 W/m2
19:59 64.3 °F 53.6 °F 29.93 in Calm   1 mph 68% 0.00 in 0 W/m2
20:00 64.3 °F 53.9 °F 29.93 in Calm   1 mph 69% 0.00 in 0 W/m2
20:09 64 °F 54 °F 29.94 in Calm     70% 0.00 in 0 W/m2
20:14 63.8 °F 54 °F 29.93 in Calm     70.5% 0.00 in 0 W/m2
20:19 63.6 °F 54.1 °F 29.94 in Calm     71% 0.00 in 0 W/m2
20:24 63.5 °F 53.9 °F 29.93 in Calm   1 mph 71% 0.00 in 0 W/m2
20:29 63.4 °F 54 °F 29.94 in Calm   1 mph 71.4% 0.00 in 0 W/m2
20:34 63.3 °F 54.1 °F 29.94 in Calm   1 mph 72% 0.00 in 0 W/m2
20:39 63.3 °F 54.5 °F 29.94 in Calm     73% 0.00 in 0 W/m2
20:44 63.4 °F 54.6 °F 29.94 in Calm     73% 0.00 in 0 W/m2
20:49 63.4 °F 54.9 °F 29.94 in Calm     73.8% 0.00 in 0 W/m2
20:54 63.4 °F 55 °F 29.94 in West 0.2 mph 2 mph 74% 0.00 in 0 W/m2
20:59 63.5 °F 55.1 °F 29.94 in West 0.1 mph 2 mph 74% 0.00 in 0 W/m2
21:04 63.5 °F 55.1 °F 29.94 in Calm   2 mph 74% 0.00 in 0 W/m2
21:09 63.6 °F 55.3 °F 29.94 in Calm     74.5% 0.00 in 0 W/m2
21:14 63.6 °F 55.5 °F 29.94 in Calm     75% 0.00 in 0 W/m2
21:19 63.7 °F 55.6 °F 29.94 in Calm     75% 0.00 in 0 W/m2
21:24 63.8 °F 55.4 °F 29.95 in Calm     74.2% 0.00 in 0 W/m2
21:29 63.8 °F 55.4 °F 29.95 in Calm     74% 0.00 in 0 W/m2
21:34 63.8 °F 55.4 °F 29.95 in Calm   1 mph 74% 0.00 in 0 W/m2
21:39 63.8 °F 55.4 °F 29.95 in Calm   1 mph 74% 0.00 in 0 W/m2
21:44 63.9 °F 55.3 °F 29.95 in Calm   1 mph 73.6% 0.00 in 0 W/m2
21:49 63.9 °F 55.1 °F 29.95 in Calm   1 mph 73% 0.00 in 0 W/m2
21:54 64 °F 55.2 °F 29.95 in Calm   1 mph 73% 0.00 in 0 W/m2
21:59 64.1 °F 55.1 °F 29.95 in Calm   1 mph 72.7% 0.00 in 0 W/m2
22:04 64.1 °F 54.9 °F 29.95 in Calm   1 mph 72% 0.00 in 0 W/m2
22:09 64.1 °F 54.9 °F 29.96 in Calm     72% 0.00 in 0 W/m2
22:14 64.1 °F 54.9 °F 29.96 in Calm     72% 0.00 in 0 W/m2
22:19 64 °F 54.8 °F 29.96 in Calm     72% 0.00 in 0 W/m2
22:24 64 °F 54.8 °F 29.96 in Calm     72% 0.00 in 0 W/m2
22:29 64 °F 54.8 °F 29.96 in Calm     72% 0.00 in 0 W/m2
22:34 63.9 °F 54.7 °F 29.96 in Calm     72% 0.00 in 0 W/m2
22:39 63.9 °F 54.7 °F 29.96 in Calm     72% 0.00 in 0 W/m2
22:44 63.8 °F 54.9 °F 29.96 in Calm     72.6% 0.00 in 0 W/m2
22:49 63.8 °F 55.2 °F 29.96 in Calm     73.7% 0.00 in 0 W/m2
22:54 63.6 °F 55.2 °F 29.96 in Calm     74% 0.00 in 0 W/m2
22:59 63.4 °F 54.6 °F 29.96 in Calm     73% 0.00 in 0 W/m2
23:04 63.2 °F 54.5 °F 29.96 in Calm     73% 0.00 in 0 W/m2
23:09 63.1 °F 54.3 °F 29.96 in Calm     73% 0.00 in 0 W/m2
23:14 63 °F 54.2 °F 29.96 in Calm     73% 0.00 in 0 W/m2
23:19 62.8 °F 54.1 °F 29.96 in Calm     73% 0.00 in 0 W/m2
23:24 62.7 °F 53.9 °F 29.96 in Calm     73% 0.00 in 0 W/m2
23:29 62.6 °F 53.8 °F 29.96 in Calm     73% 0.00 in 0 W/m2
23:34 62.4 °F 53.7 °F 29.96 in Calm     73% 0.00 in 0 W/m2
23:39 62.3 °F 53.6 °F 29.96 in Calm     73% 0.00 in 0 W/m2
23:44 62.3 °F 53.5 °F 29.96 in Calm     73% 0.00 in 0 W/m2
23:49 62.2 °F 53.5 °F 29.96 in Calm     73% 0.00 in 0 W/m2
23:54 62.1 °F 53.4 °F 29.96 in Calm     73% 0.00 in 0 W/m2
23:59 62.2 °F 53.6 °F 29.96 in West 0.1 mph 3 mph 73.5% 0.00 in 0 W/m2
Hartford County Weather
Compliments of Weather Underground - 4 mb